createdAt,value
2019-03-20T00:01:53.474Z,1.54
2019-03-20T00:07:07.895Z,1.55
2019-03-20T00:12:15.873Z,1.69
2019-03-20T00:17:18.873Z,1.36
2019-03-20T00:22:24.111Z,1.03
2019-03-20T00:27:28.137Z,0.85
2019-03-20T00:32:24.192Z,1.13
2019-03-20T00:37:22.762Z,1.38
2019-03-20T00:42:19.063Z,1.16
2019-03-20T00:47:15.212Z,1.14
2019-03-20T00:52:11.172Z,1.04
2019-03-20T00:57:08.500Z,1.03
2019-03-20T01:02:11.130Z,1.20
2019-03-20T01:07:10.333Z,1.33
2019-03-20T01:12:06.444Z,0.88
2019-03-20T01:17:04.192Z,0.63
2019-03-20T01:22:08.787Z,0.92
2019-03-20T01:27:08.250Z,0.94
2019-03-20T01:32:06.254Z,0.92
2019-03-20T01:37:09.303Z,1.05
2019-03-20T01:42:31.380Z,1.05
2019-03-20T01:47:27.199Z,0.88
2019-03-20T01:52:24.011Z,0.77
2019-03-20T01:57:19.848Z,0.68
2019-03-20T02:02:16.292Z,0.50
2019-03-20T02:07:14.297Z,0.59
2019-03-20T02:12:23.235Z,0.64
2019-03-20T02:17:25.424Z,0.66
2019-03-20T02:22:26.812Z,0.61
2019-03-20T02:27:24.286Z,0.45
2019-03-20T02:32:24.325Z,0.59
2019-03-20T02:37:27.352Z,0.45
2019-03-20T02:42:29.117Z,0.43
2019-03-20T02:47:40.850Z,0.46
2019-03-20T02:52:51.416Z,0.55
2019-03-20T02:58:00.348Z,0.42
2019-03-20T03:02:56.886Z,0.22
2019-03-20T03:07:58.851Z,0.12
2019-03-20T03:12:59.519Z,-0.10
2019-03-20T03:18:49.309Z,0.14
2019-03-20T03:23:40.639Z,-0.04
2019-03-20T03:28:43.700Z,0.18
2019-03-20T03:33:55.149Z,0.40
2019-03-20T03:39:05.128Z,0.06
2019-03-20T03:44:17.297Z,-0.02
2019-03-20T03:49:22.725Z,0.14
2019-03-20T03:54:37.891Z,-0.13
2019-03-20T03:59:52.870Z,-0.25
2019-03-20T04:05:24.348Z,-0.15
2019-03-20T04:10:17.445Z,-0.28
2019-03-20T04:16:02.889Z,0.02
2019-03-20T04:21:30.153Z,0.08
2019-03-20T04:27:35.158Z,-0.27
2019-03-20T04:33:12.197Z,-0.15
2019-03-20T04:38:46.698Z,-0.22
2019-03-20T04:44:35.168Z,-0.43
2019-03-20T04:57:13.519Z,-0.05
2019-03-20T05:15:48.458Z,-0.83
2019-03-20T05:21:05.491Z,-0.42
2019-03-20T05:26:02.214Z,-0.57
2019-03-20T05:31:17.251Z,-0.85
2019-03-20T05:42:28.758Z,-0.38
2019-03-20T05:48:21.581Z,-0.14
2019-03-20T05:59:53.202Z,0.03
2019-03-20T06:05:47.147Z,0.01
2019-03-20T06:11:28.028Z,-0.36
2019-03-20T06:16:30.612Z,-0.34
2019-03-20T06:21:34.787Z,-0.28
2019-03-20T06:26:33.676Z,-0.05
2019-03-20T06:31:37.952Z,0.12
2019-03-20T06:36:41.374Z,0.20
2019-03-20T06:41:40.448Z,0.48
2019-03-20T06:46:38.782Z,0.36
2019-03-20T06:51:34.630Z,0.58
2019-03-20T06:56:33.614Z,0.65
2019-03-20T07:01:30.582Z,0.87
2019-03-20T07:07:00.984Z,1.08
2019-03-20T07:11:56.949Z,1.29
2019-03-20T07:16:52.843Z,1.47
2019-03-20T07:21:48.797Z,1.63
2019-03-20T07:26:44.643Z,1.76
2019-03-20T07:31:40.503Z,1.95
2019-03-20T07:36:37.785Z,2.13
2019-03-20T07:41:33.841Z,2.27
2019-03-20T07:46:29.877Z,2.63
2019-03-20T07:51:28.325Z,2.92
2019-03-20T07:56:24.215Z,3.33
2019-03-20T08:01:20.487Z,3.78
2019-03-20T08:06:16.439Z,4.25
2019-03-20T08:11:14.162Z,4.82
2019-03-20T08:16:10.193Z,5.35
2019-03-20T08:21:06.200Z,5.65
2019-03-20T08:26:02.295Z,5.89
2019-03-20T08:30:58.164Z,6.14
2019-03-20T08:35:54.111Z,6.26
2019-03-20T08:40:50.023Z,6.39
2019-03-20T08:45:45.860Z,6.68
2019-03-20T08:50:42.018Z,6.73
2019-03-20T08:55:38.217Z,6.88
2019-03-20T09:00:34.280Z,6.97
2019-03-20T09:05:30.760Z,6.88
2019-03-20T09:10:31.826Z,7.20
2019-03-20T09:15:34.204Z,7.37
2019-03-20T09:20:31.608Z,7.50
2019-03-20T09:25:39.729Z,7.49
2019-03-20T09:43:01.045Z,7.83
2019-03-20T09:47:57.447Z,7.95
2019-03-20T09:53:30.438Z,8.04
2019-03-20T09:58:39.948Z,8.08
2019-03-20T10:03:39.953Z,8.26
2019-03-20T10:08:54.019Z,8.28
2019-03-20T10:13:56.719Z,8.16
2019-03-20T10:18:57.980Z,8.24
2019-03-20T10:23:57.683Z,8.22
2019-03-20T10:28:55.818Z,8.24
2019-03-20T10:33:54.769Z,8.25
2019-03-20T10:38:52.328Z,8.33
2019-03-20T10:43:52.424Z,8.48
2019-03-20T10:48:48.982Z,8.42
2019-03-20T10:53:46.074Z,8.38
2019-03-20T10:58:46.822Z,8.48
2019-03-20T11:03:42.963Z,8.42
2019-03-20T11:08:41.906Z,8.44
2019-03-20T11:13:57.027Z,8.55
2019-03-20T11:19:17.240Z,8.76
2019-03-20T11:24:18.843Z,8.80
2019-03-20T11:29:44.006Z,8.80
2019-03-20T11:35:25.444Z,8.69
2019-03-20T11:40:55.330Z,8.55
2019-03-20T11:46:49.857Z,8.49
2019-03-20T11:52:48.050Z,8.68
2019-03-20T11:58:15.541Z,8.49
2019-03-20T12:10:42.246Z,9.21
2019-03-20T12:16:03.815Z,9.45
2019-03-20T12:21:52.560Z,9.34
2019-03-20T12:26:58.037Z,9.43
2019-03-20T12:32:32.660Z,9.44
2019-03-20T12:43:37.893Z,9.35
2019-03-20T12:49:14.626Z,9.73
2019-03-20T13:08:45.013Z,9.60
2019-03-20T13:20:06.947Z,9.60
2019-03-20T13:25:15.557Z,9.36
2019-03-20T13:30:28.303Z,9.10
2019-03-20T13:35:29.845Z,9.14
2019-03-20T13:40:33.910Z,9.19
2019-03-20T13:45:41.567Z,9.00
2019-03-20T13:50:35.534Z,8.96
2019-03-20T13:55:36.142Z,9.14
2019-03-20T14:00:37.271Z,9.16
2019-03-20T14:05:39.571Z,9.28
2019-03-20T14:10:50.356Z,9.41
2019-03-20T14:16:06.250Z,9.29
2019-03-20T14:21:04.297Z,9.48
2019-03-20T14:26:12.804Z,9.82
2019-03-20T14:31:09.374Z,9.93
2019-03-20T14:36:22.198Z,9.79
2019-03-20T14:41:21.705Z,9.81
2019-03-20T14:46:27.925Z,9.78
2019-03-20T14:51:33.259Z,9.73
2019-03-20T14:56:30.041Z,9.83
2019-03-20T15:07:00.752Z,9.97
2019-03-20T15:11:59.197Z,9.86
2019-03-20T15:17:16.448Z,9.79
2019-03-20T15:22:19.740Z,9.74
2019-03-20T15:27:18.197Z,9.75
2019-03-20T15:32:48.672Z,9.86
2019-03-20T15:37:57.609Z,9.78
2019-03-20T15:43:11.332Z,9.95
2019-03-20T15:48:07.473Z,9.88
2019-03-20T15:53:14.011Z,9.68
2019-03-20T15:58:10.652Z,9.74
2019-03-20T16:03:19.465Z,9.73
2019-03-20T16:08:23.640Z,9.64
2019-03-20T16:13:19.877Z,9.40
2019-03-20T16:18:29.107Z,9.49
2019-03-20T16:23:30.642Z,9.40
2019-03-20T16:28:26.705Z,9.28
2019-03-20T16:33:28.507Z,9.29
2019-03-20T16:39:01.335Z,9.13
2019-03-20T16:43:36.527Z,9.14
2019-03-20T16:48:34.052Z,9.09
2019-03-20T16:53:46.256Z,8.99
2019-03-20T16:58:51.263Z,8.94
2019-03-20T17:04:13.003Z,8.80
2019-03-20T17:33:37.818Z,8.20
2019-03-20T17:39:03.702Z,8.14
2019-03-20T17:44:09.238Z,8.15
2019-03-20T17:49:08.352Z,8.02
2019-03-20T17:55:08.287Z,7.85
2019-03-20T18:01:01.561Z,7.85
2019-03-20T18:06:18.959Z,7.80
2019-03-20T18:11:36.618Z,7.69
2019-03-20T18:17:06.322Z,7.52
2019-03-20T18:22:28.577Z,7.40
2019-03-20T18:28:18.316Z,7.47
2019-03-20T18:34:39.816Z,7.34
2019-03-20T18:39:48.797Z,7.21
2019-03-20T18:44:56.580Z,7.09
2019-03-20T18:49:59.412Z,7.00
2019-03-20T18:55:01.789Z,6.90
2019-03-20T19:00:07.772Z,6.94
2019-03-20T19:05:18.137Z,6.88
2019-03-20T19:10:25.516Z,6.80
2019-03-20T19:15:25.704Z,6.70
2019-03-20T19:20:22.928Z,6.67
2019-03-20T19:25:32.332Z,6.56
2019-03-20T19:30:37.787Z,6.46
2019-03-20T19:35:33.667Z,6.38
2019-03-20T19:40:29.548Z,6.29
2019-03-20T19:45:42.063Z,6.27
2019-03-20T19:50:48.131Z,6.38
2019-03-20T19:55:44.150Z,6.29
2019-03-20T20:00:42.589Z,6.23
2019-03-20T20:05:47.712Z,6.22
2019-03-20T20:10:46.321Z,6.06
2019-03-20T20:15:45.903Z,5.93
2019-03-20T20:20:41.968Z,5.86
2019-03-20T20:25:41.007Z,5.66
2019-03-20T20:30:38.357Z,5.44
2019-03-20T20:35:34.677Z,5.22
2019-03-20T20:40:32.950Z,4.91
2019-03-20T20:45:29.199Z,4.79
2019-03-20T20:50:25.345Z,4.70
2019-03-20T20:55:27.712Z,4.51
2019-03-20T21:00:25.529Z,4.42
2019-03-20T21:05:21.676Z,4.37
2019-03-20T21:10:26.147Z,4.41
2019-03-20T21:16:24.790Z,4.34
2019-03-20T21:22:38.751Z,4.26
2019-03-20T21:28:56.998Z,4.37
2019-03-20T21:34:37.195Z,4.13
2019-03-20T21:39:36.218Z,4.32
2019-03-20T21:45:20.230Z,4.79
2019-03-20T21:51:13.209Z,5.06
2019-03-20T21:56:37.960Z,5.06
2019-03-20T22:02:22.796Z,5.18
2019-03-20T22:07:19.707Z,5.19
2019-03-20T22:12:45.309Z,5.19
2019-03-20T22:19:13.247Z,5.03
2019-03-20T22:25:13.119Z,4.96
2019-03-20T22:30:11.700Z,4.78
2019-03-20T22:35:58.172Z,4.62
2019-03-20T22:41:56.637Z,4.35
2019-03-20T22:48:01.265Z,4.01
2019-03-20T22:54:17.680Z,4.30
2019-03-20T22:59:16.929Z,4.41
2019-03-20T23:04:27.292Z,4.49
2019-03-20T23:09:34.530Z,4.47
2019-03-20T23:14:34.086Z,4.48
2019-03-20T23:19:31.090Z,4.50
2019-03-20T23:24:27.975Z,4.39
2019-03-20T23:29:24.913Z,4.37
2019-03-20T23:34:21.736Z,4.37
2019-03-20T23:39:18.398Z,4.33
2019-03-20T23:44:15.289Z,4.48
2019-03-20T23:49:16.496Z,4.38
2019-03-20T23:54:15.354Z,4.36
2019-03-20T23:59:12.050Z,4.02
